EGGPGCRR

Guest
Details From EGGP - Liverpool
To GCRR - Lanzarote
Flight Number -
Tags decoded
Created
Modified
Stats Distance 1,659 nm / 3,073 km
Max Altitude 0 ft / 0 m
Waypoints 8
Social Downloads 0
Likes 0
Share VATSIM

Download

Looking for another format? Having issues loading an existing format? Contact us
Advertisement - Login to hide

Notes

Requested: EGGP WAL BAGSO LASNO T9 BEGAS DEMOS DEVLA GCRR Unmatched points: T9

Route

EGGP WAL BAGSO LASNO BEGAS DEMOS DEVLA GCRR

ID Type Via Altitude Latitude Longitude Leg Dist Tot Dist Heading (true) Name
O EGGP APT - 0 ft / 0 m 53.33363˚ -2.84977˚ - 0 nm - Liverpool
WAL VOR - 0 ft / 0 m 53.39194˚ -3.13444˚ 10 nm 10 nm 289° / 289° WALLASEY VOR-DME
BAGSO FIX - 0 ft / 0 m 53.68000˚ -5.50000˚ 86 nm 96 nm 283° / 281° -
LASNO FIX - 0 ft / 0 m 48.59833˚ -9.00000˚ 332 nm 429 nm 205° / 202° -
BEGAS FIX - 0 ft / 0 m 45.00000˚ -9.00000˚ 216 nm 645 nm 180° / 180° -
DEMOS FIX - 0 ft / 0 m 41.92570˚ -9.36200˚ 185 nm 830 nm 185° / 185° -
DEVLA FIX - 0 ft / 0 m 29.24806˚ -12.71833˚ 778 nm 1609 nm 193° / 191° -
O GCRR APT - 0 ft / 0 m 28.94547˚ -13.60522˚ 49 nm 1659 nm 249° / 248° Lanzarote

Altitude Profile

Advertisement - Login to hide

Weather


0- 5 10 15 20 25 30 35+ Temperature / ° C

Clouds and Precipitation
Forecast for 2018-05-22 12:00 UTC. Updated 2 hours ago

Ground ~20,000 ft ~40,000 ft Winds

EGGP

Details ICAO EGGP (LPL)
Name Liverpool
Region United Kingdom
Timezone Europe/London (UTC+1.0)
Stats Elevation 80 ft / 24 m (AMSL)
Location 53.333632° -2.849769°
Runways 1
Magnetic Variation 1.606° W

METAR

EGGP 221020Z 06010KT 030V100 CAVOK 17/09 Q1020

Decode

TAF

TAF TAF EGGP 220501Z 2206/2306 04007KT 9999 FEW015 PROB40 TEMPO 2219/2306 7000

Decode

Departure Runways

ID Width Length Bearing (true) Bearing (mag) Surface Threshold Offset Overrun Length
09 151 ft / 46 m 7,466 ft / 2,276 m 85.59° 87.20° Asphalt 180 ft / 55 m 0 ft / 0 m
27 151 ft / 46 m 7,466 ft / 2,276 m 265.61° 267.22° Asphalt 0 ft / 0 m 0 ft / 0 m

GCRR

Details ICAO GCRR (ACE)
Name Lanzarote
Region Canary Islands
Timezone Atlantic/Canary (UTC+1.0)
Stats Elevation 0 ft / 0 m (AMSL)
Location 28.945466° -13.605223°
Runways 1
Magnetic Variation 3.926° W

METAR

GCRR 221030Z 16007KT 9999 FEW037 21/13 Q1017

Decode

TAF

TAF GCRR 220800Z 2209/2309 35008KT 9999 FEW030 TX25/2214Z TN16/2305Z TEMPO 2210/2218 13010KT

Decode

Destination Runways

ID Width Length Bearing (true) Bearing (mag) Surface Threshold Offset Overrun Length
03 148 ft / 45 m 7,893 ft / 2,406 m 26.90° 30.83° Asphalt 197 ft / 60 m 197 ft / 60 m
21 148 ft / 45 m 7,893 ft / 2,406 m 206.91° 210.84° Asphalt 197 ft / 60 m 197 ft / 60 m

Approach Navaids

Runway Type Ident Frequency Range Bearing (true) Bearing (mag) Slope Elevation
03 Localiser IRR 109.10 MHz 18 nm / 33 km 26.90° 30.83° - 47 ft / 14 m (AMSL)
03 Glidescope IRR 109.10 MHz 10 nm / 19 km 26.90° 30.83° 3.00° 0 ft / 0 m (AMSL)
03 DME IRR 109.10 MHz 18 nm / 33 km - - - 36 ft / 11 m (AMSL)

Popular Alternatives